sensor_id;sensor_type;location;lat;lon;timestamp;temperature;humidity
27922;DHT22;15261;50.356;10.340;2024-01-07T00:00:09;5.10;99.90
27922;DHT22;15261;50.356;10.340;2024-01-07T00:02:35;5.10;99.90
27922;DHT22;15261;50.356;10.340;2024-01-07T00:05:01;5.10;99.90
27922;DHT22;15261;50.356;10.340;2024-01-07T00:07:44;5.00;99.90
27922;DHT22;15261;50.356;10.340;2024-01-07T00:10:10;5.00;99.90
27922;DHT22;15261;50.356;10.340;2024-01-07T00:12:36;5.00;99.90
27922;DHT22;15261;50.356;10.340;2024-01-07T00:15:05;5.00;99.90
27922;DHT22;15261;50.356;10.340;2024-01-07T00:17:31;5.00;99.90
27922;DHT22;15261;50.356;10.340;2024-01-07T00:19:57;5.00;99.90
27922;DHT22;15261;50.356;10.340;2024-01-07T00:22:26;5.00;99.90
27922;DHT22;15261;50.356;10.340;2024-01-07T00:24:51;5.00;99.90
27922;DHT22;15261;50.356;10.340;2024-01-07T00:27:17;5.00;99.90
27922;DHT22;15261;50.356;10.340;2024-01-07T00:29:43;5.00;99.90
27922;DHT22;15261;50.356;10.340;2024-01-07T00:32:10;5.00;99.90
27922;DHT22;15261;50.356;10.340;2024-01-07T00:34:36;5.00;99.90
27922;DHT22;15261;50.356;10.340;2024-01-07T00:37:02;4.90;99.90
27922;DHT22;15261;50.356;10.340;2024-01-07T00:39:28;4.90;99.90
27922;DHT22;15261;50.356;10.340;2024-01-07T00:41:54;4.90;99.90
27922;DHT22;15261;50.356;10.340;2024-01-07T00:44:26;4.80;99.90
27922;DHT22;15261;50.356;10.340;2024-01-07T00:46:53;4.90;99.90
27922;DHT22;15261;50.356;10.340;2024-01-07T00:49:19;4.80;99.90
27922;DHT22;15261;50.356;10.340;2024-01-07T00:51:45;4.80;99.90
27922;DHT22;15261;50.356;10.340;2024-01-07T00:54:16;4.80;99.90
27922;DHT22;15261;50.356;10.340;2024-01-07T00:56:42;4.80;99.90
27922;DHT22;15261;50.356;10.340;2024-01-07T00:59:22;4.80;99.90
27922;DHT22;15261;50.356;10.340;2024-01-07T01:01:47;4.80;99.90
27922;DHT22;15261;50.356;10.340;2024-01-07T01:04:13;4.70;99.90
27922;DHT22;15261;50.356;10.340;2024-01-07T01:06:39;4.70;99.90
27922;DHT22;15261;50.356;10.340;2024-01-07T01:09:11;4.70;99.90
27922;DHT22;15261;50.356;10.340;2024-01-07T01:12:05;4.70;99.90
27922;DHT22;15261;50.356;10.340;2024-01-07T01:14:31;4.70;99.90
27922;DHT22;15261;50.356;10.340;2024-01-07T01:16:56;4.70;99.90
27922;DHT22;15261;50.356;10.340;2024-01-07T01:19:23;4.70;99.90
27922;DHT22;15261;50.356;10.340;2024-01-07T01:21:49;4.70;99.90
27922;DHT22;15261;50.356;10.340;2024-01-07T01:24:15;4.60;99.90
27922;DHT22;15261;50.356;10.340;2024-01-07T01:26:51;4.70;99.90
27922;DHT22;15261;50.356;10.340;2024-01-07T01:29:16;4.60;99.90
27922;DHT22;15261;50.356;10.340;2024-01-07T01:31:42;4.60;99.90
27922;DHT22;15261;50.356;10.340;2024-01-07T01:34:08;4.60;99.90
27922;DHT22;15261;50.356;10.340;2024-01-07T01:36:33;4.60;99.90
27922;DHT22;15261;50.356;10.340;2024-01-07T01:38:59;4.50;99.90
27922;DHT22;15261;50.356;10.340;2024-01-07T01:41:25;4.50;99.90
27922;DHT22;15261;50.356;10.340;2024-01-07T01:43:51;4.50;99.90
27922;DHT22;15261;50.356;10.340;2024-01-07T01:46:16;4.50;99.90
27922;DHT22;15261;50.356;10.340;2024-01-07T01:48:43;4.50;99.90
27922;DHT22;15261;50.356;10.340;2024-01-07T01:51:09;4.50;99.90
27922;DHT22;15261;50.356;10.340;2024-01-07T01:53:54;4.50;99.90
27922;DHT22;15261;50.356;10.340;2024-01-07T01:56:20;4.50;99.90
27922;DHT22;15261;50.356;10.340;2024-01-07T01:58:46;4.50;99.90
27922;DHT22;15261;50.356;10.340;2024-01-07T02:26:59;4.20;99.90
27922;DHT22;15261;50.356;10.340;2024-01-07T02:29:28;4.20;99.90
27922;DHT22;15261;50.356;10.340;2024-01-07T02:31:58;4.20;99.90
27922;DHT22;15261;50.356;10.340;2024-01-07T02:34:23;4.20;99.90
27922;DHT22;15261;50.356;10.340;2024-01-07T02:36:49;4.10;99.90
27922;DHT22;15261;50.356;10.340;2024-01-07T02:39:14;4.10;99.90
27922;DHT22;15261;50.356;10.340;2024-01-07T02:41:40;4.20;99.90
27922;DHT22;15261;50.356;10.340;2024-01-07T02:44:05;4.10;99.90
27922;DHT22;15261;50.356;10.340;2024-01-07T02:46:31;4.10;99.90
27922;DHT22;15261;50.356;10.340;2024-01-07T02:48:57;4.10;99.90
27922;DHT22;15261;50.356;10.340;2024-01-07T02:51:22;4.00;99.90
27922;DHT22;15261;50.356;10.340;2024-01-07T02:53:48;4.00;99.90
27922;DHT22;15261;50.356;10.340;2024-01-07T02:56:13;4.00;99.90
27922;DHT22;15261;50.356;10.340;2024-01-07T02:58:39;3.90;99.90
27922;DHT22;15261;50.356;10.340;2024-01-07T03:01:08;3.90;99.90
27922;DHT22;15261;50.356;10.340;2024-01-07T03:03:34;3.90;99.90
27922;DHT22;15261;50.356;10.340;2024-01-07T03:06:00;3.90;99.90
27922;DHT22;15261;50.356;10.340;2024-01-07T03:08:26;3.80;99.90
27922;DHT22;15261;50.356;10.340;2024-01-07T03:10:56;3.80;99.90
27922;DHT22;15261;50.356;10.340;2024-01-07T03:13:21;3.80;99.90
27922;DHT22;15261;50.356;10.340;2024-01-07T03:15:52;3.80;99.90
27922;DHT22;15261;50.356;10.340;2024-01-07T03:18:17;3.80;99.90
27922;DHT22;15261;50.356;10.340;2024-01-07T03:20:43;3.80;99.90
27922;DHT22;15261;50.356;10.340;2024-01-07T03:23:08;3.70;99.90
27922;DHT22;15261;50.356;10.340;2024-01-07T03:25:34;3.70;99.90
27922;DHT22;15261;50.356;10.340;2024-01-07T03:27:59;3.70;99.90
27922;DHT22;15261;50.356;10.340;2024-01-07T03:30:25;3.70;99.90
27922;DHT22;15261;50.356;10.340;2024-01-07T03:32:50;3.70;99.90
27922;DHT22;15261;50.356;10.340;2024-01-07T03:35:16;3.70;99.90
27922;DHT22;15261;50.356;10.340;2024-01-07T03:37:41;3.60;99.90
27922;DHT22;15261;50.356;10.340;2024-01-07T03:40:13;3.70;99.90
27922;DHT22;15261;50.356;10.340;2024-01-07T03:42:39;3.70;99.90
27922;DHT22;15261;50.356;10.340;2024-01-07T03:45:05;3.70;99.90
27922;DHT22;15261;50.356;10.340;2024-01-07T03:47:30;3.60;99.90
27922;DHT22;15261;50.356;10.340;2024-01-07T03:49:57;3.60;99.90
27922;DHT22;15261;50.356;10.340;2024-01-07T03:52:22;3.50;99.90
27922;DHT22;15261;50.356;10.340;2024-01-07T03:54:48;3.60;99.90
27922;DHT22;15261;50.356;10.340;2024-01-07T03:57:37;3.50;99.90
27922;DHT22;15261;50.356;10.340;2024-01-07T04:00:03;3.50;99.90
27922;DHT22;15261;50.356;10.340;2024-01-07T04:02:29;3.40;99.90
27922;DHT22;15261;50.356;10.340;2024-01-07T04:04:55;3.40;99.90
27922;DHT22;15261;50.356;10.340;2024-01-07T04:07:20;3.50;99.90
27922;DHT22;15261;50.356;10.340;2024-01-07T04:09:46;3.40;99.90
27922;DHT22;15261;50.356;10.340;2024-01-07T04:12:11;3.40;99.90
27922;DHT22;15261;50.356;10.340;2024-01-07T04:14:37;3.30;99.90
27922;DHT22;15261;50.356;10.340;2024-01-07T04:17:03;3.30;99.90
27922;DHT22;15261;50.356;10.340;2024-01-07T04:19:28;3.20;99.90
27922;DHT22;15261;50.356;10.340;2024-01-07T04:21:54;3.20;99.90
27922;DHT22;15261;50.356;10.340;2024-01-07T04:24:19;3.20;99.90
27922;DHT22;15261;50.356;10.340;2024-01-07T04:26:45;3.20;99.90
27922;DHT22;15261;50.356;10.340;2024-01-07T04:29:10;3.20;99.90
27922;DHT22;15261;50.356;10.340;2024-01-07T04:31:36;3.20;99.90
27922;DHT22;15261;50.356;10.340;2024-01-07T04:34:02;3.10;99.90
27922;DHT22;15261;50.356;10.340;2024-01-07T04:36:27;3.10;99.90
27922;DHT22;15261;50.356;10.340;2024-01-07T04:38:54;3.10;99.90
27922;DHT22;15261;50.356;10.340;2024-01-07T04:41:20;3.10;99.90
27922;DHT22;15261;50.356;10.340;2024-01-07T04:43:45;3.00;99.90
27922;DHT22;15261;50.356;10.340;2024-01-07T04:46:11;2.90;99.90
27922;DHT22;15261;50.356;10.340;2024-01-07T04:48:36;2.80;99.90
27922;DHT22;15261;50.356;10.340;2024-01-07T04:51:02;2.70;99.90
27922;DHT22;15261;50.356;10.340;2024-01-07T04:53:28;2.60;99.90
27922;DHT22;15261;50.356;10.340;2024-01-07T04:55:53;2.50;99.90
27922;DHT22;15261;50.356;10.340;2024-01-07T04:58:19;2.40;99.90
27922;DHT22;15261;50.356;10.340;2024-01-07T05:00:44;2.40;99.90
27922;DHT22;15261;50.356;10.340;2024-01-07T05:03:10;2.30;99.90
27922;DHT22;15261;50.356;10.340;2024-01-07T05:05:42;2.30;99.90
27922;DHT22;15261;50.356;10.340;2024-01-07T05:08:08;2.30;99.90
27922;DHT22;15261;50.356;10.340;2024-01-07T05:10:33;2.30;99.90
27922;DHT22;15261;50.356;10.340;2024-01-07T05:12:59;2.30;99.90
27922;DHT22;15261;50.356;10.340;2024-01-07T05:15:30;2.20;99.90
27922;DHT22;15261;50.356;10.340;2024-01-07T05:17:55;2.30;99.90
27922;DHT22;15261;50.356;10.340;2024-01-07T05:20:21;2.20;99.90
27922;DHT22;15261;50.356;10.340;2024-01-07T05:22:49;2.20;99.90
27922;DHT22;15261;50.356;10.340;2024-01-07T05:25:15;2.10;99.90
27922;DHT22;15261;50.356;10.340;2024-01-07T05:27:40;2.10;99.90
27922;DHT22;15261;50.356;10.340;2024-01-07T05:30:06;2.10;99.90
27922;DHT22;15261;50.356;10.340;2024-01-07T05:32:33;2.10;99.90
27922;DHT22;15261;50.356;10.340;2024-01-07T05:34:59;2.10;99.90
27922;DHT22;15261;50.356;10.340;2024-01-07T05:37:24;2.00;99.90
27922;DHT22;15261;50.356;10.340;2024-01-07T05:39:50;2.10;99.90
27922;DHT22;15261;50.356;10.340;2024-01-07T05:42:16;2.00;99.90
27922;DHT22;15261;50.356;10.340;2024-01-07T05:44:41;2.00;99.90
27922;DHT22;15261;50.356;10.340;2024-01-07T05:47:07;2.00;99.90
27922;DHT22;15261;50.356;10.340;2024-01-07T05:49:33;2.10;99.90
27922;DHT22;15261;50.356;10.340;2024-01-07T05:51:58;2.10;99.90
27922;DHT22;15261;50.356;10.340;2024-01-07T05:54:24;2.10;99.90
27922;DHT22;15261;50.356;10.340;2024-01-07T05:56:49;2.20;99.90
27922;DHT22;15261;50.356;10.340;2024-01-07T05:59:15;2.20;99.90
27922;DHT22;15261;50.356;10.340;2024-01-07T06:01:40;2.20;99.90
27922;DHT22;15261;50.356;10.340;2024-01-07T06:04:06;2.20;99.90
27922;DHT22;15261;50.356;10.340;2024-01-07T06:06:31;2.30;99.90
27922;DHT22;15261;50.356;10.340;2024-01-07T06:08:59;2.30;99.90
27922;DHT22;15261;50.356;10.340;2024-01-07T06:11:24;2.30;99.90
27922;DHT22;15261;50.356;10.340;2024-01-07T06:13:50;2.20;99.90
27922;DHT22;15261;50.356;10.340;2024-01-07T06:16:15;2.20;99.90
27922;DHT22;15261;50.356;10.340;2024-01-07T06:18:41;2.20;99.90
27922;DHT22;15261;50.356;10.340;2024-01-07T06:21:06;2.20;99.90
27922;DHT22;15261;50.356;10.340;2024-01-07T06:23:33;2.20;99.90
27922;DHT22;15261;50.356;10.340;2024-01-07T06:25:58;2.20;99.90
27922;DHT22;15261;50.356;10.340;2024-01-07T06:28:24;2.20;99.90
27922;DHT22;15261;50.356;10.340;2024-01-07T06:30:50;2.10;99.90
27922;DHT22;15261;50.356;10.340;2024-01-07T06:33:15;2.20;99.90
27922;DHT22;15261;50.356;10.340;2024-01-07T06:35:41;2.20;99.90
27922;DHT22;15261;50.356;10.340;2024-01-07T06:38:06;2.30;99.90
27922;DHT22;15261;50.356;10.340;2024-01-07T06:40:32;2.30;99.90
27922;DHT22;15261;50.356;10.340;2024-01-07T06:42:58;2.30;99.90
27922;DHT22;15261;50.356;10.340;2024-01-07T06:45:23;2.30;99.90
27922;DHT22;15261;50.356;10.340;2024-01-07T06:47:50;2.30;99.90
27922;DHT22;15261;50.356;10.340;2024-01-07T06:50:15;2.30;99.90
27922;DHT22;15261;50.356;10.340;2024-01-07T06:52:42;2.30;99.90
27922;DHT22;15261;50.356;10.340;2024-01-07T06:55:07;2.20;99.90
27922;DHT22;15261;50.356;10.340;2024-01-07T06:57:33;2.30;99.90
27922;DHT22;15261;50.356;10.340;2024-01-07T06:59:59;2.20;99.90
27922;DHT22;15261;50.356;10.340;2024-01-07T07:02:24;2.20;99.90
27922;DHT22;15261;50.356;10.340;2024-01-07T07:04:50;2.20;99.90
27922;DHT22;15261;50.356;10.340;2024-01-07T07:07:17;2.20;99.90
27922;DHT22;15261;50.356;10.340;2024-01-07T07:09:42;2.20;99.90
27922;DHT22;15261;50.356;10.340;2024-01-07T07:12:08;2.10;99.90
27922;DHT22;15261;50.356;10.340;2024-01-07T07:14:34;2.10;99.90
27922;DHT22;15261;50.356;10.340;2024-01-07T07:17:00;2.10;99.90
27922;DHT22;15261;50.356;10.340;2024-01-07T07:19:25;2.10;99.90
27922;DHT22;15261;50.356;10.340;2024-01-07T07:21:51;2.10;99.90
27922;DHT22;15261;50.356;10.340;2024-01-07T07:24:16;2.10;99.90
27922;DHT22;15261;50.356;10.340;2024-01-07T07:26:42;2.00;99.90
27922;DHT22;15261;50.356;10.340;2024-01-07T07:29:08;1.90;99.90
27922;DHT22;15261;50.356;10.340;2024-01-07T07:31:36;1.90;99.90
27922;DHT22;15261;50.356;10.340;2024-01-07T07:34:05;2.00;99.90
27922;DHT22;15261;50.356;10.340;2024-01-07T07:36:31;2.00;99.90
27922;DHT22;15261;50.356;10.340;2024-01-07T07:38:56;2.00;99.90
27922;DHT22;15261;50.356;10.340;2024-01-07T07:41:22;1.90;99.90
27922;DHT22;15261;50.356;10.340;2024-01-07T07:43:48;1.90;99.90
27922;DHT22;15261;50.356;10.340;2024-01-07T07:46:13;1.80;99.90
27922;DHT22;15261;50.356;10.340;2024-01-07T07:48:41;1.80;99.90
27922;DHT22;15261;50.356;10.340;2024-01-07T07:51:06;1.80;99.90
27922;DHT22;15261;50.356;10.340;2024-01-07T07:53:32;1.80;99.90
27922;DHT22;15261;50.356;10.340;2024-01-07T07:55:57;1.80;99.90
27922;DHT22;15261;50.356;10.340;2024-01-07T07:58:31;1.80;99.90
27922;DHT22;15261;50.356;10.340;2024-01-07T08:01:00;1.80;99.90
27922;DHT22;15261;50.356;10.340;2024-01-07T08:03:26;1.80;99.90
27922;DHT22;15261;50.356;10.340;2024-01-07T08:05:52;1.80;99.90
27922;DHT22;15261;50.356;10.340;2024-01-07T08:08:20;1.80;99.90
27922;DHT22;15261;50.356;10.340;2024-01-07T08:10:45;1.90;99.90
27922;DHT22;15261;50.356;10.340;2024-01-07T08:13:11;1.80;99.90
27922;DHT22;15261;50.356;10.340;2024-01-07T08:15:36;1.80;99.90
27922;DHT22;15261;50.356;10.340;2024-01-07T08:18:03;1.80;99.90
27922;DHT22;15261;50.356;10.340;2024-01-07T08:20:29;1.80;99.90
27922;DHT22;15261;50.356;10.340;2024-01-07T08:22:54;1.80;99.90
27922;DHT22;15261;50.356;10.340;2024-01-07T08:25:20;1.90;99.90
27922;DHT22;15261;50.356;10.340;2024-01-07T08:27:45;1.90;99.90
27922;DHT22;15261;50.356;10.340;2024-01-07T08:30:11;1.90;99.90
27922;DHT22;15261;50.356;10.340;2024-01-07T08:32:39;1.90;99.90
27922;DHT22;15261;50.356;10.340;2024-01-07T08:35:05;1.90;99.90
27922;DHT22;15261;50.356;10.340;2024-01-07T08:37:30;2.00;99.90
27922;DHT22;15261;50.356;10.340;2024-01-07T08:39:56;2.00;99.90
27922;DHT22;15261;50.356;10.340;2024-01-07T08:42:22;2.00;99.90
27922;DHT22;15261;50.356;10.340;2024-01-07T08:44:47;2.00;99.90
27922;DHT22;15261;50.356;10.340;2024-01-07T08:47:13;2.00;99.90
27922;DHT22;15261;50.356;10.340;2024-01-07T08:49:38;2.00;99.90
27922;DHT22;15261;50.356;10.340;2024-01-07T08:52:05;1.90;99.90
27922;DHT22;15261;50.356;10.340;2024-01-07T08:54:30;1.90;99.90
27922;DHT22;15261;50.356;10.340;2024-01-07T08:56:56;1.80;99.90
27922;DHT22;15261;50.356;10.340;2024-01-07T08:59:22;1.80;99.90
27922;DHT22;15261;50.356;10.340;2024-01-07T09:01:50;1.70;99.90
27922;DHT22;15261;50.356;10.340;2024-01-07T09:04:16;1.80;99.90
27922;DHT22;15261;50.356;10.340;2024-01-07T09:06:43;1.70;99.90
27922;DHT22;15261;50.356;10.340;2024-01-07T09:09:09;1.70;99.90
27922;DHT22;15261;50.356;10.340;2024-01-07T09:11:35;1.70;99.90
27922;DHT22;15261;50.356;10.340;2024-01-07T09:14:01;1.70;99.90
27922;DHT22;15261;50.356;10.340;2024-01-07T09:16:28;1.70;99.90
27922;DHT22;15261;50.356;10.340;2024-01-07T09:18:54;1.70;99.90
27922;DHT22;15261;50.356;10.340;2024-01-07T09:21:20;1.70;99.90
27922;DHT22;15261;50.356;10.340;2024-01-07T09:23:45;1.70;99.90
27922;DHT22;15261;50.356;10.340;2024-01-07T09:26:11;1.80;99.90
27922;DHT22;15261;50.356;10.340;2024-01-07T09:28:36;1.90;99.90
27922;DHT22;15261;50.356;10.340;2024-01-07T09:31:02;1.80;99.90
27922;DHT22;15261;50.356;10.340;2024-01-07T09:33:28;1.80;99.90
27922;DHT22;15261;50.356;10.340;2024-01-07T09:35:53;1.80;99.90
27922;DHT22;15261;50.356;10.340;2024-01-07T09:38:21;1.90;99.90
27922;DHT22;15261;50.356;10.340;2024-01-07T09:40:49;1.80;99.90
27922;DHT22;15261;50.356;10.340;2024-01-07T09:43:14;1.80;99.90
27922;DHT22;15261;50.356;10.340;2024-01-07T09:45:42;1.80;99.90
27922;DHT22;15261;50.356;10.340;2024-01-07T09:48:11;1.90;99.90
27922;DHT22;15261;50.356;10.340;2024-01-07T09:50:36;1.90;99.90
27922;DHT22;15261;50.356;10.340;2024-01-07T09:53:02;1.80;99.90
27922;DHT22;15261;50.356;10.340;2024-01-07T09:55:33;1.80;99.90
27922;DHT22;15261;50.356;10.340;2024-01-07T09:57:59;1.80;99.90
27922;DHT22;15261;50.356;10.340;2024-01-07T10:00:27;1.80;99.90
27922;DHT22;15261;50.356;10.340;2024-01-07T10:02:53;1.80;99.90
27922;DHT22;15261;50.356;10.340;2024-01-07T10:05:19;1.80;99.90
27922;DHT22;15261;50.356;10.340;2024-01-07T10:07:44;1.80;99.90
27922;DHT22;15261;50.356;10.340;2024-01-07T10:10:14;1.80;99.90
27922;DHT22;15261;50.356;10.340;2024-01-07T10:12:40;1.80;99.90
27922;DHT22;15261;50.356;10.340;2024-01-07T10:15:06;1.80;99.90
27922;DHT22;15261;50.356;10.340;2024-01-07T10:17:31;1.90;99.90
27922;DHT22;15261;50.356;10.340;2024-01-07T10:19:57;1.90;99.90
27922;DHT22;15261;50.356;10.340;2024-01-07T10:22:23;1.90;99.90
27922;DHT22;15261;50.356;10.340;2024-01-07T10:24:51;2.00;99.90
27922;DHT22;15261;50.356;10.340;2024-01-07T10:27:17;2.00;99.90
27922;DHT22;15261;50.356;10.340;2024-01-07T10:29:46;2.10;99.90
27922;DHT22;15261;50.356;10.340;2024-01-07T10:32:15;2.00;99.90
27922;DHT22;15261;50.356;10.340;2024-01-07T10:34:41;2.00;99.90
27922;DHT22;15261;50.356;10.340;2024-01-07T10:37:09;2.10;99.90
27922;DHT22;15261;50.356;10.340;2024-01-07T10:39:36;2.10;99.90
27922;DHT22;15261;50.356;10.340;2024-01-07T10:42:02;2.10;99.90
27922;DHT22;15261;50.356;10.340;2024-01-07T10:44:30;2.10;99.90
27922;DHT22;15261;50.356;10.340;2024-01-07T10:46:59;2.10;99.90
27922;DHT22;15261;50.356;10.340;2024-01-07T10:49:27;2.10;99.90
27922;DHT22;15261;50.356;10.340;2024-01-07T10:52:05;2.10;99.90
27922;DHT22;15261;50.356;10.340;2024-01-07T10:54:33;2.00;99.90
27922;DHT22;15261;50.356;10.340;2024-01-07T10:57:13;2.00;99.90
27922;DHT22;15261;50.356;10.340;2024-01-07T10:59:44;2.00;99.90
27922;DHT22;15261;50.356;10.340;2024-01-07T11:02:11;2.00;99.90
27922;DHT22;15261;50.356;10.340;2024-01-07T11:05:02;1.90;99.90
27922;DHT22;15261;50.356;10.340;2024-01-07T11:07:35;1.90;99.90
27922;DHT22;15261;50.356;10.340;2024-01-07T11:10:25;1.90;99.90
27922;DHT22;15261;50.356;10.340;2024-01-07T11:13:00;1.80;99.90
27922;DHT22;15261;50.356;10.340;2024-01-07T11:18:20;1.80;99.90
27922;DHT22;15261;50.356;10.340;2024-01-07T11:20:46;1.80;99.90
27922;DHT22;15261;50.356;10.340;2024-01-07T11:23:35;1.70;99.90
27922;DHT22;15261;50.356;10.340;2024-01-07T11:26:06;1.70;99.90
27922;DHT22;15261;50.356;10.340;2024-01-07T11:28:51;1.70;99.90
27922;DHT22;15261;50.356;10.340;2024-01-07T11:31:19;1.70;99.90
27922;DHT22;15261;50.356;10.340;2024-01-07T11:33:47;1.60;99.90
27922;DHT22;15261;50.356;10.340;2024-01-07T11:36:16;1.60;99.90
27922;DHT22;15261;50.356;10.340;2024-01-07T11:38:48;1.50;99.90
27922;DHT22;15261;50.356;10.340;2024-01-07T11:41:14;1.50;99.90
27922;DHT22;15261;50.356;10.340;2024-01-07T11:43:59;1.50;99.90
27922;DHT22;15261;50.356;10.340;2024-01-07T11:46:29;1.60;99.90
27922;DHT22;15261;50.356;10.340;2024-01-07T11:48:58;1.50;99.90
27922;DHT22;15261;50.356;10.340;2024-01-07T11:51:28;1.50;99.90
27922;DHT22;15261;50.356;10.340;2024-01-07T11:53:56;1.40;99.90
27922;DHT22;15261;50.356;10.340;2024-01-07T11:56:22;1.40;99.90
27922;DHT22;15261;50.356;10.340;2024-01-07T11:58:47;1.40;99.90
27922;DHT22;15261;50.356;10.340;2024-01-07T12:01:15;1.40;99.90
27922;DHT22;15261;50.356;10.340;2024-01-07T12:03:43;1.40;99.90
27922;DHT22;15261;50.356;10.340;2024-01-07T12:06:10;1.30;99.90
27922;DHT22;15261;50.356;10.340;2024-01-07T12:08:42;1.30;99.90
27922;DHT22;15261;50.356;10.340;2024-01-07T12:11:11;1.40;99.90
27922;DHT22;15261;50.356;10.340;2024-01-07T12:13:37;1.40;99.90
27922;DHT22;15261;50.356;10.340;2024-01-07T12:16:04;1.30;99.90
27922;DHT22;15261;50.356;10.340;2024-01-07T12:18:30;1.30;99.90
27922;DHT22;15261;50.356;10.340;2024-01-07T12:20:59;1.40;99.90
27922;DHT22;15261;50.356;10.340;2024-01-07T12:23:26;1.40;99.90
27922;DHT22;15261;50.356;10.340;2024-01-07T12:25:55;1.40;99.90
27922;DHT22;15261;50.356;10.340;2024-01-07T12:28:32;1.40;99.90
27922;DHT22;15261;50.356;10.340;2024-01-07T12:30:57;1.40;99.90
27922;DHT22;15261;50.356;10.340;2024-01-07T12:33:25;1.40;99.90
27922;DHT22;15261;50.356;10.340;2024-01-07T12:35:51;1.30;99.90
27922;DHT22;15261;50.356;10.340;2024-01-07T12:38:25;1.30;99.90
27922;DHT22;15261;50.356;10.340;2024-01-07T12:40:54;1.30;99.90
27922;DHT22;15261;50.356;10.340;2024-01-07T12:43:20;1.10;99.90
27922;DHT22;15261;50.356;10.340;2024-01-07T12:45:47;1.20;99.90
27922;DHT22;15261;50.356;10.340;2024-01-07T12:48:13;1.20;99.90
27922;DHT22;15261;50.356;10.340;2024-01-07T12:50:38;1.20;99.90
27922;DHT22;15261;50.356;10.340;2024-01-07T12:53:04;1.20;99.90
27922;DHT22;15261;50.356;10.340;2024-01-07T12:55:31;1.20;99.90
27922;DHT22;15261;50.356;10.340;2024-01-07T12:57:56;1.20;99.90
27922;DHT22;15261;50.356;10.340;2024-01-07T13:00:24;1.20;99.90
27922;DHT22;15261;50.356;10.340;2024-01-07T13:02:50;1.10;99.90
27922;DHT22;15261;50.356;10.340;2024-01-07T13:05:17;1.00;99.90
27922;DHT22;15261;50.356;10.340;2024-01-07T13:07:42;1.10;99.90
27922;DHT22;15261;50.356;10.340;2024-01-07T13:10:08;1.00;99.90
27922;DHT22;15261;50.356;10.340;2024-01-07T13:12:35;1.00;99.90
27922;DHT22;15261;50.356;10.340;2024-01-07T13:15:01;1.00;99.90
27922;DHT22;15261;50.356;10.340;2024-01-07T13:17:27;0.90;99.90
27922;DHT22;15261;50.356;10.340;2024-01-07T13:19:55;1.00;99.90
27922;DHT22;15261;50.356;10.340;2024-01-07T13:22:20;1.00;99.90
27922;DHT22;15261;50.356;10.340;2024-01-07T13:24:46;1.00;99.90
27922;DHT22;15261;50.356;10.340;2024-01-07T13:27:12;0.90;99.90
27922;DHT22;15261;50.356;10.340;2024-01-07T13:29:38;0.90;99.90
27922;DHT22;15261;50.356;10.340;2024-01-07T13:32:04;0.90;99.90
27922;DHT22;15261;50.356;10.340;2024-01-07T13:34:31;1.00;99.90
27922;DHT22;15261;50.356;10.340;2024-01-07T13:36:56;0.90;99.90
27922;DHT22;15261;50.356;10.340;2024-01-07T13:39:22;1.00;99.90
27922;DHT22;15261;50.356;10.340;2024-01-07T13:41:48;0.90;99.90
27922;DHT22;15261;50.356;10.340;2024-01-07T13:44:13;0.80;99.90
27922;DHT22;15261;50.356;10.340;2024-01-07T13:46:46;0.70;99.90
27922;DHT22;15261;50.356;10.340;2024-01-07T13:49:17;0.70;99.90
27922;DHT22;15261;50.356;10.340;2024-01-07T13:51:44;0.70;99.90
27922;DHT22;15261;50.356;10.340;2024-01-07T13:54:09;0.50;99.90
27922;DHT22;15261;50.356;10.340;2024-01-07T13:56:38;0.50;99.90
27922;DHT22;15261;50.356;10.340;2024-01-07T13:59:07;0.50;99.90
27922;DHT22;15261;50.356;10.340;2024-01-07T14:01:33;0.50;99.90
27922;DHT22;15261;50.356;10.340;2024-01-07T14:03:59;0.50;99.90
27922;DHT22;15261;50.356;10.340;2024-01-07T14:06:25;0.50;99.90
27922;DHT22;15261;50.356;10.340;2024-01-07T14:08:50;0.40;99.90
27922;DHT22;15261;50.356;10.340;2024-01-07T14:11:17;0.20;99.90
27922;DHT22;15261;50.356;10.340;2024-01-07T14:13:44;0.30;99.90
27922;DHT22;15261;50.356;10.340;2024-01-07T14:16:10;0.20;99.90
27922;DHT22;15261;50.356;10.340;2024-01-07T14:18:45;0.10;99.90
27922;DHT22;15261;50.356;10.340;2024-01-07T14:21:11;0.00;99.90
27922;DHT22;15261;50.356;10.340;2024-01-07T14:23:36;-0.10;99.90
27922;DHT22;15261;50.356;10.340;2024-01-07T14:26:02;0.00;99.90
27922;DHT22;15261;50.356;10.340;2024-01-07T14:28:29;-0.10;99.90
27922;DHT22;15261;50.356;10.340;2024-01-07T14:30:54;-0.10;99.90
27922;DHT22;15261;50.356;10.340;2024-01-07T14:33:20;-0.10;99.90
27922;DHT22;15261;50.356;10.340;2024-01-07T14:35:46;-0.20;99.90
27922;DHT22;15261;50.356;10.340;2024-01-07T14:38:11;-0.20;99.90
27922;DHT22;15261;50.356;10.340;2024-01-07T14:40:37;-0.20;99.90
27922;DHT22;15261;50.356;10.340;2024-01-07T14:43:05;-0.20;99.90
27922;DHT22;15261;50.356;10.340;2024-01-07T14:45:31;-0.20;99.90
27922;DHT22;15261;50.356;10.340;2024-01-07T14:47:56;-0.30;99.90
27922;DHT22;15261;50.356;10.340;2024-01-07T14:50:22;-0.40;99.90
27922;DHT22;15261;50.356;10.340;2024-01-07T14:52:47;-0.50;99.90
27922;DHT22;15261;50.356;10.340;2024-01-07T14:55:13;-0.70;99.90
27922;DHT22;15261;50.356;10.340;2024-01-07T14:57:40;-0.70;99.90
27922;DHT22;15261;50.356;10.340;2024-01-07T15:00:06;-0.80;99.90
27922;DHT22;15261;50.356;10.340;2024-01-07T15:02:32;-0.80;99.90
27922;DHT22;15261;50.356;10.340;2024-01-07T15:04:58;-0.80;99.90
27922;DHT22;15261;50.356;10.340;2024-01-07T15:07:24;-0.70;99.90
27922;DHT22;15261;50.356;10.340;2024-01-07T15:09:50;-0.70;99.90
27922;DHT22;15261;50.356;10.340;2024-01-07T15:12:16;-0.80;99.90
27922;DHT22;15261;50.356;10.340;2024-01-07T15:14:41;-1.00;99.90
27922;DHT22;15261;50.356;10.340;2024-01-07T15:17:07;-1.00;99.90
27922;DHT22;15261;50.356;10.340;2024-01-07T15:19:33;-0.90;99.90
27922;DHT22;15261;50.356;10.340;2024-01-07T15:21:59;-0.90;99.90
27922;DHT22;15261;50.356;10.340;2024-01-07T15:24:25;-1.00;99.90
27922;DHT22;15261;50.356;10.340;2024-01-07T15:26:50;-1.00;99.90
27922;DHT22;15261;50.356;10.340;2024-01-07T15:29:16;-1.00;99.90
27922;DHT22;15261;50.356;10.340;2024-01-07T15:31:43;-1.00;99.90
27922;DHT22;15261;50.356;10.340;2024-01-07T15:34:09;-1.00;99.90
27922;DHT22;15261;50.356;10.340;2024-01-07T15:36:35;-1.00;99.90
27922;DHT22;15261;50.356;10.340;2024-01-07T15:39:02;-0.90;99.90
27922;DHT22;15261;50.356;10.340;2024-01-07T15:41:28;-0.90;99.90
27922;DHT22;15261;50.356;10.340;2024-01-07T15:43:55;-0.90;99.90
27922;DHT22;15261;50.356;10.340;2024-01-07T15:46:21;-0.90;99.90
27922;DHT22;15261;50.356;10.340;2024-01-07T15:48:46;-0.90;99.90
27922;DHT22;15261;50.356;10.340;2024-01-07T15:51:13;-0.80;99.90
27922;DHT22;15261;50.356;10.340;2024-01-07T15:53:38;-0.80;99.90
27922;DHT22;15261;50.356;10.340;2024-01-07T15:56:04;-0.80;99.90